Ocean Breeze — CFH7579 — position and weather

sailwx.info

Track history (hours):
 
Tides and Currents Weather Stations Pressure Air Temp Water Temp Dewpoint Dewpoint Depression Visibility Wind Speed Wind Dir Waves Ship Positions

Ocean Breeze

Last reported at 2018-May-09 20:55 UTC. Time now 2018-May-22 02:30 UTC.
Position N 49°18' W 123°06'.
Warning: this ship's position is 12 days out of date.

Length 14 m; draft 0.6 m.

Type: Pleasure craft. MMSI: 316011497.

Date/timePositionNaut miles runAvg speedWind from/ knotsBaromVisibWave heightAir tempDewpointWater temp
2018-May-09 20:55N 49°18' W 123°06'4 8.6
2018-May-09 20:30N 49°18' W 123°01'5 8.0
2018-May-09 19:56N 49°20' W 122°55'4 8.9
2018-May-09 19:30N 49°24' W 122°52'1 0.1
2018-May-08 18:54N 49°25' W 122°52'4 8.6
2018-May-08 18:28N 49°21' W 122°54'4 8.6
2018-May-08 17:59N 49°18' W 122°57'5 9.3
2018-May-08 17:27N 49°18' W 123°05'1 0.0
2018-May-07 17:56N 49°18' W 123°06'4 8.2
2018-May-07 17:29N 49°18' W 123°01'4 7.9
2018-May-07 17:00N 49°20' W 122°56'4 8.0
2018-May-07 16:30N 49°23' W 122°53'5 0.4
2018-May-07 05:11N 49°28' W 122°53'  
2018-May-04 14:52N 49°28' W 122°53'2 0.1
2018-May-03 23:34N 49°25' W 122°52'1 9.1
2018-May-03 23:27N 49°24' W 122°52'4 8.8
2018-May-03 23:00N 49°21' W 122°54'4 8.2
2018-May-03 22:30N 49°18' W 122°59'4 7.1
2018-May-03 21:53N 49°18' W 123°06'  
Track history (hours):
 
Tides and Currents Weather Stations Pressure Air Temp Water Temp Dewpoint Dewpoint Depression Visibility Wind Speed Wind Dir Waves Ship Positions

Ocean Breeze

Last reported at 2018-May-09 20:55 UTC. Time now 2018-May-22 02:30 UTC.
Position N 49°18' W 123°06'.
Warning: this ship's position is 12 days out of date.

Length 14 m; draft 0.6 m.

Type: Pleasure craft. MMSI: 316011497.

Date/timePositionNaut miles runAvg speedWind from/ knotsBaromVisibWave heightAir tempDewpointWater temp
2018-May-09 20:55N 49°18' W 123°06'4 8.6
2018-May-09 20:30N 49°18' W 123°01'5 8.0
2018-May-09 19:56N 49°20' W 122°55'4 8.9
2018-May-09 19:30N 49°24' W 122°52'1 0.1
2018-May-08 18:54N 49°25' W 122°52'4 8.6
2018-May-08 18:28N 49°21' W 122°54'4 8.6
2018-May-08 17:59N 49°18' W 122°57'5 9.3
2018-May-08 17:27N 49°18' W 123°05'1 0.0
2018-May-07 17:56N 49°18' W 123°06'4 8.2
2018-May-07 17:29N 49°18' W 123°01'4 7.9
2018-May-07 17:00N 49°20' W 122°56'4 8.0
2018-May-07 16:30N 49°23' W 122°53'5 0.4
2018-May-07 05:11N 49°28' W 122°53'  
2018-May-04 14:52N 49°28' W 122°53'2 0.1
2018-May-03 23:34N 49°25' W 122°52'1 9.1
2018-May-03 23:27N 49°24' W 122°52'4 8.8
2018-May-03 23:00N 49°21' W 122°54'4 8.2
2018-May-03 22:30N 49°18' W 122°59'4 7.1
2018-May-03 21:53N 49°18' W 123°06'  

Dump ship's entire track history